sensor_id;sensor_type;location;lat;lon;timestamp;pressure;altitude;pressure_sealevel;temperature;humidity
53440;BME280;39333;47.044;15.080;2022-10-23T00:01:28;96747.97;;;7.24;84.72
53440;BME280;39333;47.044;15.080;2022-10-23T00:04:01;96747.75;;;7.26;84.35
53440;BME280;39333;47.044;15.080;2022-10-23T00:06:30;96739.00;;;7.32;84.23
53440;BME280;39333;47.044;15.080;2022-10-23T00:08:57;96743.91;;;7.28;84.83
53440;BME280;39333;47.044;15.080;2022-10-23T00:11:28;96742.50;;;7.26;86.44
53440;BME280;39333;47.044;15.080;2022-10-23T00:13:58;96744.09;;;7.27;86.79
53440;BME280;39333;47.044;15.080;2022-10-23T00:16:26;96742.25;;;7.34;85.37
53440;BME280;39333;47.044;15.080;2022-10-23T00:18:53;96739.19;;;7.44;84.75
53440;BME280;39333;47.044;15.080;2022-10-23T00:21:19;96733.28;;;7.42;84.90
53440;BME280;39333;47.044;15.080;2022-10-23T00:23:46;96741.16;;;7.48;84.39
53440;BME280;39333;47.044;15.080;2022-10-23T00:26:13;96734.09;;;7.42;85.04
53440;BME280;39333;47.044;15.080;2022-10-23T00:28:46;96733.66;;;7.52;86.62
53440;BME280;39333;47.044;15.080;2022-10-23T00:31:14;96729.59;;;7.56;87.10
53440;BME280;39333;47.044;15.080;2022-10-23T00:33:42;96731.72;;;7.72;89.22
53440;BME280;39333;47.044;15.080;2022-10-23T00:36:11;96736.47;;;8.58;92.17
53440;BME280;39333;47.044;15.080;2022-10-23T00:38:41;96734.00;;;8.81;91.48
53440;BME280;39333;47.044;15.080;2022-10-23T00:41:14;96732.72;;;9.08;90.71
53440;BME280;39333;47.044;15.080;2022-10-23T00:46:43;96725.69;;;9.39;89.53
53440;BME280;39333;47.044;15.080;2022-10-23T00:49:11;96732.72;;;9.27;87.87
53440;BME280;39333;47.044;15.080;2022-10-23T00:51:54;96735.94;;;8.92;86.51
53440;BME280;39333;47.044;15.080;2022-10-23T00:54:25;96739.84;;;8.90;88.10
53440;BME280;39333;47.044;15.080;2022-10-23T00:57:14;96738.47;;;8.81;88.41
53440;BME280;39333;47.044;15.080;2022-10-23T00:59:41;96739.19;;;8.69;88.01
53440;BME280;39333;47.044;15.080;2022-10-23T01:02:08;96747.69;;;8.53;88.24
53440;BME280;39333;47.044;15.080;2022-10-23T01:04:36;96737.03;;;8.35;89.12
53440;BME280;39333;47.044;15.080;2022-10-23T01:10:19;96741.75;;;8.26;89.35
53440;BME280;39333;47.044;15.080;2022-10-23T01:12:57;96741.16;;;8.24;89.28
53440;BME280;39333;47.044;15.080;2022-10-23T01:15:51;96740.38;;;8.17;89.27
53440;BME280;39333;47.044;15.080;2022-10-23T01:18:36;96744.22;;;8.21;90.15
53440;BME280;39333;47.044;15.080;2022-10-23T01:21:12;96740.44;;;8.67;91.75
53440;BME280;39333;47.044;15.080;2022-10-23T01:31:55;96746.47;;;8.18;88.98
53440;BME280;39333;47.044;15.080;2022-10-23T01:34:31;96726.75;;;8.20;89.70
53440;BME280;39333;47.044;15.080;2022-10-23T01:37:00;96731.03;;;8.21;90.31
53440;BME280;39333;47.044;15.080;2022-10-23T01:39:34;96731.44;;;8.18;89.89
53440;BME280;39333;47.044;15.080;2022-10-23T01:42:07;96721.50;;;8.14;90.24
53440;BME280;39333;47.044;15.080;2022-10-23T01:44:58;96726.50;;;7.97;89.34
53440;BME280;39333;47.044;15.080;2022-10-23T01:47:36;96721.59;;;8.00;88.91
53440;BME280;39333;47.044;15.080;2022-10-23T01:50:07;96731.22;;;7.95;88.79
53440;BME280;39333;47.044;15.080;2022-10-23T01:52:38;96725.38;;;7.80;89.44
53440;BME280;39333;47.044;15.080;2022-10-23T01:55:06;96734.66;;;8.27;91.48
53440;BME280;39333;47.044;15.080;2022-10-23T01:57:37;96728.97;;;8.98;91.91
53440;BME280;39333;47.044;15.080;2022-10-23T02:00:10;96726.53;;;9.51;90.56
53440;BME280;39333;47.044;15.080;2022-10-23T02:02:56;96717.38;;;9.95;86.71
53440;BME280;39333;47.044;15.080;2022-10-23T02:05:30;96714.75;;;9.95;85.45
53440;BME280;39333;47.044;15.080;2022-10-23T02:07:59;96737.78;;;10.25;84.17
53440;BME280;39333;47.044;15.080;2022-10-23T02:10:36;96722.97;;;10.05;81.79
53440;BME280;39333;47.044;15.080;2022-10-23T02:15:36;96721.53;;;10.21;83.95
53440;BME280;39333;47.044;15.080;2022-10-23T02:18:14;96718.31;;;10.31;82.81
53440;BME280;39333;47.044;15.080;2022-10-23T02:21:13;96721.78;;;10.43;83.26
53440;BME280;39333;47.044;15.080;2022-10-23T02:26:24;96722.59;;;10.43;81.27
53440;BME280;39333;47.044;15.080;2022-10-23T02:29:23;96713.16;;;10.47;80.74
53440;BME280;39333;47.044;15.080;2022-10-23T02:31:54;96718.81;;;10.51;80.18
53440;BME280;39333;47.044;15.080;2022-10-23T02:34:21;96712.09;;;10.25;81.67
53440;BME280;39333;47.044;15.080;2022-10-23T02:36:48;96711.66;;;10.40;82.20
53440;BME280;39333;47.044;15.080;2022-10-23T02:39:20;96703.25;;;10.43;80.53
53440;BME280;39333;47.044;15.080;2022-10-23T02:41:55;96705.13;;;10.12;79.44
53440;BME280;39333;47.044;15.080;2022-10-23T02:55:46;96705.34;;;8.60;83.96
53440;BME280;39333;47.044;15.080;2022-10-23T02:58:28;96727.94;;;8.56;84.11
53440;BME280;39333;47.044;15.080;2022-10-23T03:01:10;96726.06;;;8.38;84.32
53440;BME280;39333;47.044;15.080;2022-10-23T03:03:41;96723.91;;;8.22;85.06
53440;BME280;39333;47.044;15.080;2022-10-23T03:06:11;96716.91;;;8.09;85.68
53440;BME280;39333;47.044;15.080;2022-10-23T03:09:04;96706.16;;;7.72;87.75
53440;BME280;39333;47.044;15.080;2022-10-23T03:11:31;96710.97;;;7.82;88.21
53440;BME280;39333;47.044;15.080;2022-10-23T03:13:58;96702.69;;;7.72;88.82
53440;BME280;39333;47.044;15.080;2022-10-23T03:16:25;96705.88;;;8.12;90.12
53440;BME280;39333;47.044;15.080;2022-10-23T03:18:53;96715.00;;;8.48;88.47
53440;BME280;39333;47.044;15.080;2022-10-23T03:21:20;96708.78;;;8.35;86.65
53440;BME280;39333;47.044;15.080;2022-10-23T03:23:50;96712.75;;;8.20;86.68
53440;BME280;39333;47.044;15.080;2022-10-23T03:26:24;96702.63;;;7.85;87.38
53440;BME280;39333;47.044;15.080;2022-10-23T03:28:50;96702.69;;;7.79;88.13
53440;BME280;39333;47.044;15.080;2022-10-23T03:31:19;96705.72;;;7.76;88.27
53440;BME280;39333;47.044;15.080;2022-10-23T03:33:48;96706.66;;;7.88;88.69
53440;BME280;39333;47.044;15.080;2022-10-23T03:36:15;96708.72;;;7.86;88.21
53440;BME280;39333;47.044;15.080;2022-10-23T03:38:42;96704.56;;;8.28;89.67
53440;BME280;39333;47.044;15.080;2022-10-23T03:41:09;96702.94;;;8.27;87.11
53440;BME280;39333;47.044;15.080;2022-10-23T03:43:36;96703.88;;;8.39;87.45
53440;BME280;39333;47.044;15.080;2022-10-23T03:46:02;96698.66;;;8.57;87.18
53440;BME280;39333;47.044;15.080;2022-10-23T03:48:35;96699.97;;;8.66;86.56
53440;BME280;39333;47.044;15.080;2022-10-23T03:51:05;96699.50;;;8.76;85.93
53440;BME280;39333;47.044;15.080;2022-10-23T03:53:32;96700.75;;;8.73;84.70
53440;BME280;39333;47.044;15.080;2022-10-23T03:56:01;96691.88;;;8.61;85.06
53440;BME280;39333;47.044;15.080;2022-10-23T03:58:28;96696.31;;;8.67;85.95
53440;BME280;39333;47.044;15.080;2022-10-23T04:00:55;96691.84;;;8.68;86.03
53440;BME280;39333;47.044;15.080;2022-10-23T04:03:21;96704.06;;;8.62;84.86
53440;BME280;39333;47.044;15.080;2022-10-23T04:05:48;96703.50;;;8.29;84.34
53440;BME280;39333;47.044;15.080;2022-10-23T04:08:20;96695.16;;;8.07;84.96
53440;BME280;39333;47.044;15.080;2022-10-23T04:10:49;96684.03;;;7.98;86.21
53440;BME280;39333;47.044;15.080;2022-10-23T04:13:19;96696.78;;;8.08;87.21
53440;BME280;39333;47.044;15.080;2022-10-23T04:15:49;96688.88;;;8.08;87.87
53440;BME280;39333;47.044;15.080;2022-10-23T04:18:17;96693.41;;;8.26;88.29
53440;BME280;39333;47.044;15.080;2022-10-23T04:20:50;96680.88;;;8.15;86.93
53440;BME280;39333;47.044;15.080;2022-10-23T04:23:17;96691.53;;;8.01;86.08
53440;BME280;39333;47.044;15.080;2022-10-23T04:25:46;96690.63;;;7.89;85.66
53440;BME280;39333;47.044;15.080;2022-10-23T04:28:13;96681.41;;;7.67;85.64
53440;BME280;39333;47.044;15.080;2022-10-23T04:30:40;96683.97;;;6.97;86.11
53440;BME280;39333;47.044;15.080;2022-10-23T04:33:09;96677.50;;;6.87;87.98
53440;BME280;39333;47.044;15.080;2022-10-23T04:35:36;96665.72;;;6.96;88.65
53440;BME280;39333;47.044;15.080;2022-10-23T04:38:02;96685.91;;;7.15;88.27
53440;BME280;39333;47.044;15.080;2022-10-23T04:40:29;96683.47;;;7.20;87.88
53440;BME280;39333;47.044;15.080;2022-10-23T04:42:56;96677.19;;;7.21;87.51
53440;BME280;39333;47.044;15.080;2022-10-23T04:45:23;96681.41;;;7.29;87.51
53440;BME280;39333;47.044;15.080;2022-10-23T04:47:50;96671.63;;;7.36;87.20
53440;BME280;39333;47.044;15.080;2022-10-23T04:50:19;96673.03;;;7.38;86.39
53440;BME280;39333;47.044;15.080;2022-10-23T04:53:04;96684.94;;;7.48;85.69
53440;BME280;39333;47.044;15.080;2022-10-23T04:55:53;96675.19;;;7.55;85.35
53440;BME280;39333;47.044;15.080;2022-10-23T04:58:44;96678.03;;;7.53;83.75
53440;BME280;39333;47.044;15.080;2022-10-23T05:01:11;96661.78;;;7.56;84.38
53440;BME280;39333;47.044;15.080;2022-10-23T05:03:38;96658.81;;;7.46;84.16
53440;BME280;39333;47.044;15.080;2022-10-23T05:06:05;96663.50;;;7.37;84.29
53440;BME280;39333;47.044;15.080;2022-10-23T05:08:41;96675.69;;;7.38;84.37
53440;BME280;39333;47.044;15.080;2022-10-23T05:11:20;96670.69;;;7.24;84.74
53440;BME280;39333;47.044;15.080;2022-10-23T05:13:48;96671.03;;;7.34;84.89
53440;BME280;39333;47.044;15.080;2022-10-23T05:16:42;96678.94;;;7.34;84.41
53440;BME280;39333;47.044;15.080;2022-10-23T05:19:14;96669.81;;;7.36;83.85
53440;BME280;39333;47.044;15.080;2022-10-23T05:21:50;96674.66;;;7.40;83.75
53440;BME280;39333;47.044;15.080;2022-10-23T05:24:25;96668.38;;;7.41;83.49
53440;BME280;39333;47.044;15.080;2022-10-23T05:26:58;96662.88;;;7.42;82.95
53440;BME280;39333;47.044;15.080;2022-10-23T05:29:28;96668.03;;;7.30;82.99
53440;BME280;39333;47.044;15.080;2022-10-23T05:31:58;96672.47;;;7.30;83.58
53440;BME280;39333;47.044;15.080;2022-10-23T05:34:29;96666.63;;;7.15;83.33
53440;BME280;39333;47.044;15.080;2022-10-23T05:37:00;96662.28;;;6.82;84.59
53440;BME280;39333;47.044;15.080;2022-10-23T05:39:32;96667.56;;;6.82;84.64
53440;BME280;39333;47.044;15.080;2022-10-23T05:42:00;96669.00;;;6.78;85.83
53440;BME280;39333;47.044;15.080;2022-10-23T05:44:27;96664.16;;;6.82;86.16
53440;BME280;39333;47.044;15.080;2022-10-23T05:47:26;96655.19;;;6.96;86.24
53440;BME280;39333;47.044;15.080;2022-10-23T05:49:52;96661.63;;;7.00;85.94
53440;BME280;39333;47.044;15.080;2022-10-23T05:52:38;96667.91;;;6.99;85.99
53440;BME280;39333;47.044;15.080;2022-10-23T05:55:05;96667.72;;;7.00;85.79
53440;BME280;39333;47.044;15.080;2022-10-23T05:57:52;96665.47;;;7.04;85.61
53440;BME280;39333;47.044;15.080;2022-10-23T06:00:33;96668.50;;;7.14;84.79
53440;BME280;39333;47.044;15.080;2022-10-23T06:03:19;96677.38;;;7.20;84.66
53440;BME280;39333;47.044;15.080;2022-10-23T06:05:50;96681.84;;;7.26;84.31
53440;BME280;39333;47.044;15.080;2022-10-23T06:08:19;96672.09;;;7.26;84.27
53440;BME280;39333;47.044;15.080;2022-10-23T06:10:49;96675.50;;;7.33;84.25
53440;BME280;39333;47.044;15.080;2022-10-23T06:13:17;96672.44;;;7.36;84.88
53440;BME280;39333;47.044;15.080;2022-10-23T06:15:43;96678.09;;;7.40;86.90
53440;BME280;39333;47.044;15.080;2022-10-23T06:18:18;96674.19;;;7.49;87.20
53440;BME280;39333;47.044;15.080;2022-10-23T06:20:59;96676.38;;;7.59;87.32
53440;BME280;39333;47.044;15.080;2022-10-23T06:23:30;96674.28;;;7.67;87.75
53440;BME280;39333;47.044;15.080;2022-10-23T06:26:07;96690.66;;;7.83;87.56
53440;BME280;39333;47.044;15.080;2022-10-23T06:28:45;96686.56;;;7.87;86.85
53440;BME280;39333;47.044;15.080;2022-10-23T06:31:15;96689.19;;;7.93;87.13
53440;BME280;39333;47.044;15.080;2022-10-23T06:33:44;96699.63;;;8.06;86.51
53440;BME280;39333;47.044;15.080;2022-10-23T06:36:11;96693.66;;;8.18;85.23
53440;BME280;39333;47.044;15.080;2022-10-23T06:38:40;96697.22;;;8.30;84.90
53440;BME280;39333;47.044;15.080;2022-10-23T06:41:12;96702.19;;;8.45;84.36
53440;BME280;39333;47.044;15.080;2022-10-23T06:43:40;96703.78;;;8.52;83.78
53440;BME280;39333;47.044;15.080;2022-10-23T06:46:06;96699.38;;;8.64;83.79
53440;BME280;39333;47.044;15.080;2022-10-23T06:48:59;96701.34;;;8.75;84.85
53440;BME280;39333;47.044;15.080;2022-10-23T06:51:30;96707.72;;;8.86;84.64
53440;BME280;39333;47.044;15.080;2022-10-23T06:53:57;96708.94;;;9.08;85.11
53440;BME280;39333;47.044;15.080;2022-10-23T06:57:02;96705.44;;;9.44;85.18
53440;BME280;39333;47.044;15.080;2022-10-23T06:59:38;96708.25;;;9.79;82.94
53440;BME280;39333;47.044;15.080;2022-10-23T07:02:08;96704.09;;;10.13;81.92
53440;BME280;39333;47.044;15.080;2022-10-23T07:04:35;96712.94;;;10.37;80.87
53440;BME280;39333;47.044;15.080;2022-10-23T07:07:09;96701.97;;;10.57;80.79
53440;BME280;39333;47.044;15.080;2022-10-23T07:09:43;96710.28;;;10.96;79.67
53440;BME280;39333;47.044;15.080;2022-10-23T07:12:23;96706.09;;;11.35;79.11
53440;BME280;39333;47.044;15.080;2022-10-23T07:15:03;96705.06;;;11.76;77.82
53440;BME280;39333;47.044;15.080;2022-10-23T07:17:30;96698.97;;;11.92;74.83
53440;BME280;39333;47.044;15.080;2022-10-23T07:19:58;96705.53;;;12.01;75.35
53440;BME280;39333;47.044;15.080;2022-10-23T07:22:25;96703.75;;;12.07;74.77
53440;BME280;39333;47.044;15.080;2022-10-23T07:29:28;96702.75;;;11.68;77.01
53440;BME280;39333;47.044;15.080;2022-10-23T07:31:55;96706.06;;;11.75;78.26
53440;BME280;39333;47.044;15.080;2022-10-23T07:34:43;96703.31;;;11.81;78.39
53440;BME280;39333;47.044;15.080;2022-10-23T07:37:24;96692.97;;;11.97;77.89
53440;BME280;39333;47.044;15.080;2022-10-23T07:39:51;96707.25;;;12.24;77.21
53440;BME280;39333;47.044;15.080;2022-10-23T07:42:17;96701.38;;;12.55;76.77
53440;BME280;39333;47.044;15.080;2022-10-23T07:44:44;96696.13;;;12.77;75.62
53440;BME280;39333;47.044;15.080;2022-10-23T07:47:11;96692.41;;;12.95;75.18
53440;BME280;39333;47.044;15.080;2022-10-23T07:49:43;96688.56;;;13.08;74.02
53440;BME280;39333;47.044;15.080;2022-10-23T07:52:10;96704.38;;;13.31;73.58
53440;BME280;39333;47.044;15.080;2022-10-23T07:54:57;96691.09;;;13.36;72.19
53440;BME280;39333;47.044;15.080;2022-10-23T07:57:27;96687.53;;;13.47;73.21
53440;BME280;39333;47.044;15.080;2022-10-23T08:00:06;96678.25;;;13.55;71.59
53440;BME280;39333;47.044;15.080;2022-10-23T08:02:39;96686.69;;;13.69;71.86
53440;BME280;39333;47.044;15.080;2022-10-23T08:05:08;96667.31;;;13.51;72.16
53440;BME280;39333;47.044;15.080;2022-10-23T08:07:46;96684.44;;;13.17;72.87
53440;BME280;39333;47.044;15.080;2022-10-23T08:10:15;96682.84;;;13.16;73.67
53440;BME280;39333;47.044;15.080;2022-10-23T08:12:43;96666.78;;;13.11;73.73
53440;BME280;39333;47.044;15.080;2022-10-23T08:15:31;96682.66;;;13.22;74.37
53440;BME280;39333;47.044;15.080;2022-10-23T08:18:31;96657.59;;;13.40;74.62
53440;BME280;39333;47.044;15.080;2022-10-23T08:21:00;96663.75;;;13.68;74.03
53440;BME280;39333;47.044;15.080;2022-10-23T08:23:29;96659.03;;;13.75;73.38
53440;BME280;39333;47.044;15.080;2022-10-23T08:25:59;96666.38;;;13.89;73.30
53440;BME280;39333;47.044;15.080;2022-10-23T08:28:28;96665.16;;;14.02;72.35
53440;BME280;39333;47.044;15.080;2022-10-23T08:30:57;96660.25;;;13.89;72.45
53440;BME280;39333;47.044;15.080;2022-10-23T08:33:25;96669.09;;;13.94;72.18
53440;BME280;39333;47.044;15.080;2022-10-23T08:35:52;96666.47;;;14.26;71.81
53440;BME280;39333;47.044;15.080;2022-10-23T08:38:27;96668.78;;;14.50;70.91
53440;BME280;39333;47.044;15.080;2022-10-23T08:40:54;96669.81;;;14.81;69.68
53440;BME280;39333;47.044;15.080;2022-10-23T08:43:57;96672.25;;;15.34;68.29
53440;BME280;39333;47.044;15.080;2022-10-23T08:46:37;96673.25;;;15.86;67.18
53440;BME280;39333;47.044;15.080;2022-10-23T08:52:19;96675.69;;;16.13;64.82
53440;BME280;39333;47.044;15.080;2022-10-23T08:54:51;96685.28;;;15.93;64.24
53440;BME280;39333;47.044;15.080;2022-10-23T08:57:32;96676.91;;;15.59;65.22
53440;BME280;39333;47.044;15.080;2022-10-23T09:00:15;96684.72;;;15.19;66.30
53440;BME280;39333;47.044;15.080;2022-10-23T09:02:48;96673.78;;;15.20;66.65
53440;BME280;39333;47.044;15.080;2022-10-23T09:05:31;96687.47;;;15.34;65.49
53440;BME280;39333;47.044;15.080;2022-10-23T09:08:33;96688.13;;;15.56;66.94
53440;BME280;39333;47.044;15.080;2022-10-23T09:19:15;96687.22;;;16.18;61.79
53440;BME280;39333;47.044;15.080;2022-10-23T09:21:47;96690.97;;;16.37;60.97
53440;BME280;39333;47.044;15.080;2022-10-23T09:24:20;96693.09;;;16.25;60.80
53440;BME280;39333;47.044;15.080;2022-10-23T09:26:48;96688.81;;;16.14;61.88
53440;BME280;39333;47.044;15.080;2022-10-23T09:29:33;96690.97;;;16.27;61.85
53440;BME280;39333;47.044;15.080;2022-10-23T09:32:04;96682.38;;;16.25;61.64
53440;BME280;39333;47.044;15.080;2022-10-23T09:34:34;96691.69;;;15.82;61.69
53440;BME280;39333;47.044;15.080;2022-10-23T09:37:20;96685.84;;;15.90;63.06
53440;BME280;39333;47.044;15.080;2022-10-23T09:39:47;96682.59;;;15.93;63.12
53440;BME280;39333;47.044;15.080;2022-10-23T09:42:23;96678.66;;;16.26;62.32
53440;BME280;39333;47.044;15.080;2022-10-23T09:44:52;96680.78;;;16.24;63.20
53440;BME280;39333;47.044;15.080;2022-10-23T09:47:24;96680.56;;;16.71;63.39
53440;BME280;39333;47.044;15.080;2022-10-23T09:49:53;96670.41;;;16.68;60.97
53440;BME280;39333;47.044;15.080;2022-10-23T09:54:57;96662.63;;;16.67;62.40
53440;BME280;39333;47.044;15.080;2022-10-23T09:57:30;96666.34;;;16.81;62.83
53440;BME280;39333;47.044;15.080;2022-10-23T10:00:05;96658.03;;;16.62;60.41
53440;BME280;39333;47.044;15.080;2022-10-23T10:02:37;96661.00;;;16.61;62.49
53440;BME280;39333;47.044;15.080;2022-10-23T10:05:31;96659.41;;;16.55;64.15
53440;BME280;39333;47.044;15.080;2022-10-23T10:10:38;96658.84;;;16.17;64.28
53440;BME280;39333;47.044;15.080;2022-10-23T10:15:49;96654.03;;;16.44;64.71
53440;BME280;39333;47.044;15.080;2022-10-23T10:18:31;96648.16;;;16.42;64.01
53440;BME280;39333;47.044;15.080;2022-10-23T10:23:45;96646.81;;;16.86;62.74
53440;BME280;39333;47.044;15.080;2022-10-23T10:28:58;96641.06;;;17.23;58.73
53440;BME280;39333;47.044;15.080;2022-10-23T10:37:20;96624.06;;;18.02;58.17
53440;BME280;39333;47.044;15.080;2022-10-23T10:40:16;96623.34;;;18.25;57.70
53440;BME280;39333;47.044;15.080;2022-10-23T10:52:26;96615.03;;;18.61;61.11
53440;BME280;39333;47.044;15.080;2022-10-23T10:57:49;96610.28;;;18.47;56.68
53440;BME280;39333;47.044;15.080;2022-10-23T11:00:20;96606.66;;;18.33;57.00
53440;BME280;39333;47.044;15.080;2022-10-23T11:02:58;96598.72;;;18.18;58.04
53440;BME280;39333;47.044;15.080;2022-10-23T11:08:00;96580.50;;;18.73;57.26
53440;BME280;39333;47.044;15.080;2022-10-23T11:10:29;96590.38;;;18.82;57.03
53440;BME280;39333;47.044;15.080;2022-10-23T11:12:58;96572.69;;;19.00;55.51
53440;BME280;39333;47.044;15.080;2022-10-23T11:15:27;96575.22;;;19.34;59.79
53440;BME280;39333;47.044;15.080;2022-10-23T11:18:03;96554.28;;;19.55;57.13
53440;BME280;39333;47.044;15.080;2022-10-23T11:20:54;96562.56;;;19.77;60.31
53440;BME280;39333;47.044;15.080;2022-10-23T11:26:19;96561.81;;;19.90;57.64
53440;BME280;39333;47.044;15.080;2022-10-23T11:29:02;96555.88;;;19.13;54.88
53440;BME280;39333;47.044;15.080;2022-10-23T11:37:22;96544.91;;;18.86;60.62
53440;BME280;39333;47.044;15.080;2022-10-23T11:40:14;96549.78;;;18.60;61.30
53440;BME280;39333;47.044;15.080;2022-10-23T11:42:46;96546.38;;;17.37;63.08
53440;BME280;39333;47.044;15.080;2022-10-23T11:50:32;96545.44;;;18.64;64.14
53440;BME280;39333;47.044;15.080;2022-10-23T11:53:03;96541.88;;;18.69;62.71
53440;BME280;39333;47.044;15.080;2022-10-23T11:55:57;96534.38;;;18.13;61.33
53440;BME280;39333;47.044;15.080;2022-10-23T11:58:40;96541.09;;;18.10;62.49
53440;BME280;39333;47.044;15.080;2022-10-23T12:01:39;96521.47;;;18.68;62.38
53440;BME280;39333;47.044;15.080;2022-10-23T12:06:43;96510.28;;;19.65;62.06
53440;BME280;39333;47.044;15.080;2022-10-23T12:14:40;96501.59;;;20.19;55.17
53440;BME280;39333;47.044;15.080;2022-10-23T12:20:17;96486.88;;;19.65;58.04
53440;BME280;39333;47.044;15.080;2022-10-23T12:34:02;96472.75;;;20.06;56.73
53440;BME280;39333;47.044;15.080;2022-10-23T12:36:48;96468.78;;;20.17;55.93
53440;BME280;39333;47.044;15.080;2022-10-23T12:39:27;96459.50;;;20.42;54.93
53440;BME280;39333;47.044;15.080;2022-10-23T12:41:54;96457.22;;;20.30;56.94
53440;BME280;39333;47.044;15.080;2022-10-23T12:44:22;96464.47;;;20.02;56.48
53440;BME280;39333;47.044;15.080;2022-10-23T12:46:54;96460.84;;;19.79;57.09
53440;BME280;39333;47.044;15.080;2022-10-23T12:49:24;96453.69;;;19.56;61.73
53440;BME280;39333;47.044;15.080;2022-10-23T12:52:04;96451.63;;;19.67;58.66
53440;BME280;39333;47.044;15.080;2022-10-23T12:54:37;96452.41;;;19.48;60.16
53440;BME280;39333;47.044;15.080;2022-10-23T12:57:27;96438.50;;;19.46;59.58
53440;BME280;39333;47.044;15.080;2022-10-23T13:00:08;96438.63;;;19.36;60.83
53440;BME280;39333;47.044;15.080;2022-10-23T13:02:38;96434.97;;;18.71;60.01
53440;BME280;39333;47.044;15.080;2022-10-23T13:05:06;96428.72;;;18.51;60.11
53440;BME280;39333;47.044;15.080;2022-10-23T13:07:36;96443.84;;;18.90;62.62
53440;BME280;39333;47.044;15.080;2022-10-23T13:10:12;96443.22;;;18.98;62.71
53440;BME280;39333;47.044;15.080;2022-10-23T13:12:57;96438.34;;;19.00;60.95
53440;BME280;39333;47.044;15.080;2022-10-23T13:15:35;96439.47;;;18.75;58.82
53440;BME280;39333;47.044;15.080;2022-10-23T13:18:03;96433.97;;;18.67;61.22
53440;BME280;39333;47.044;15.080;2022-10-23T13:20:32;96424.91;;;18.58;62.43
53440;BME280;39333;47.044;15.080;2022-10-23T13:26:05;96431.19;;;18.72;63.67
53440;BME280;39333;47.044;15.080;2022-10-23T13:28:46;96436.66;;;19.04;60.93
53440;BME280;39333;47.044;15.080;2022-10-23T13:31:24;96429.94;;;19.07;60.57
53440;BME280;39333;47.044;15.080;2022-10-23T13:36:27;96426.13;;;20.24;57.96
53440;BME280;39333;47.044;15.080;2022-10-23T13:41:38;96423.84;;;19.71;56.40
53440;BME280;39333;47.044;15.080;2022-10-23T13:44:05;96425.50;;;20.00;59.23
53440;BME280;39333;47.044;15.080;2022-10-23T13:46:32;96419.72;;;19.92;57.20
53440;BME280;39333;47.044;15.080;2022-10-23T13:48:58;96423.41;;;19.97;56.42
53440;BME280;39333;47.044;15.080;2022-10-23T13:51:31;96422.16;;;20.35;59.77
53440;BME280;39333;47.044;15.080;2022-10-23T13:53:59;96410.81;;;20.52;55.88
53440;BME280;39333;47.044;15.080;2022-10-23T13:56:26;96408.19;;;20.19;54.72
53440;BME280;39333;47.044;15.080;2022-10-23T13:58:53;96400.56;;;19.80;58.85
53440;BME280;39333;47.044;15.080;2022-10-23T14:01:25;96410.16;;;20.00;62.75
53440;BME280;39333;47.044;15.080;2022-10-23T14:03:53;96410.06;;;20.33;60.04
53440;BME280;39333;47.044;15.080;2022-10-23T14:06:20;96410.88;;;20.19;59.03
53440;BME280;39333;47.044;15.080;2022-10-23T14:08:47;96410.78;;;20.11;55.15
53440;BME280;39333;47.044;15.080;2022-10-23T14:11:16;96405.34;;;19.32;56.37
53440;BME280;39333;47.044;15.080;2022-10-23T14:13:44;96414.88;;;19.62;58.03
53440;BME280;39333;47.044;15.080;2022-10-23T14:16:12;96421.19;;;19.34;56.42
53440;BME280;39333;47.044;15.080;2022-10-23T14:18:39;96416.25;;;19.22;57.45
53440;BME280;39333;47.044;15.080;2022-10-23T14:21:08;96416.47;;;19.26;61.36
53440;BME280;39333;47.044;15.080;2022-10-23T14:23:36;96412.94;;;19.11;58.41
53440;BME280;39333;47.044;15.080;2022-10-23T14:26:13;96408.25;;;19.54;61.42
53440;BME280;39333;47.044;15.080;2022-10-23T14:28:41;96406.66;;;19.35;57.40
53440;BME280;39333;47.044;15.080;2022-10-23T14:31:11;96399.84;;;18.86;58.10
53440;BME280;39333;47.044;15.080;2022-10-23T14:33:38;96395.94;;;18.78;60.00
53440;BME280;39333;47.044;15.080;2022-10-23T14:36:06;96408.41;;;18.88;63.69
53440;BME280;39333;47.044;15.080;2022-10-23T14:38:33;96401.72;;;19.23;60.37
53440;BME280;39333;47.044;15.080;2022-10-23T14:40:59;96398.41;;;18.75;59.98
53440;BME280;39333;47.044;15.080;2022-10-23T14:43:26;96395.47;;;18.71;64.03
53440;BME280;39333;47.044;15.080;2022-10-23T14:45:53;96385.53;;;18.72;62.78
53440;BME280;39333;47.044;15.080;2022-10-23T14:48:19;96395.44;;;18.76;61.30
53440;BME280;39333;47.044;15.080;2022-10-23T14:50:48;96400.88;;;18.90;64.42
53440;BME280;39333;47.044;15.080;2022-10-23T14:53:15;96404.38;;;19.09;62.18
53440;BME280;39333;47.044;15.080;2022-10-23T14:55:42;96388.31;;;19.04;61.63
53440;BME280;39333;47.044;15.080;2022-10-23T14:58:09;96389.31;;;19.08;63.91
53440;BME280;39333;47.044;15.080;2022-10-23T15:00:35;96396.91;;;19.39;64.69
53440;BME280;39333;47.044;15.080;2022-10-23T15:03:02;96382.94;;;19.04;58.99
53440;BME280;39333;47.044;15.080;2022-10-23T15:05:29;96397.16;;;18.86;64.06
53440;BME280;39333;47.044;15.080;2022-10-23T15:07:55;96395.38;;;18.58;60.55
53440;BME280;39333;47.044;15.080;2022-10-23T15:10:23;96389.91;;;18.44;63.55
53440;BME280;39333;47.044;15.080;2022-10-23T15:12:50;96385.38;;;18.39;61.02
53440;BME280;39333;47.044;15.080;2022-10-23T15:15:17;96395.41;;;18.10;61.98
53440;BME280;39333;47.044;15.080;2022-10-23T15:17:43;96394.69;;;17.75;62.90
53440;BME280;39333;47.044;15.080;2022-10-23T15:20:10;96382.84;;;17.81;64.39
53440;BME280;39333;47.044;15.080;2022-10-23T15:22:37;96384.44;;;17.82;64.04
53440;BME280;39333;47.044;15.080;2022-10-23T15:25:04;96393.69;;;17.95;67.77
53440;BME280;39333;47.044;15.080;2022-10-23T15:27:31;96389.41;;;17.94;66.33
53440;BME280;39333;47.044;15.080;2022-10-23T15:29:57;96383.41;;;18.02;67.60